createdAt,value
2019-02-05T00:00:47.568Z,102062.25
2019-02-05T00:03:17.596Z,102057.89
2019-02-05T00:05:44.844Z,102064.48
2019-02-05T00:08:12.123Z,102059.20
2019-02-05T00:10:39.356Z,102058.78
2019-02-05T00:13:06.739Z,102058.78
2019-02-05T00:15:34.718Z,102066.65
2019-02-05T00:18:02.062Z,102060.98
2019-02-05T00:20:29.265Z,102055.73
2019-02-05T00:22:56.415Z,102050.48
2019-02-05T00:25:23.675Z,102055.73
2019-02-05T00:27:50.885Z,102058.35
2019-02-05T00:30:18.080Z,102066.22
2019-02-05T00:32:45.673Z,102064.91
2019-02-05T00:35:12.879Z,102066.65
2019-02-05T00:37:40.173Z,102063.14
2019-02-05T00:40:07.683Z,102063.14
2019-02-05T00:42:34.889Z,102066.19
2019-02-05T00:45:02.086Z,102066.19
2019-02-05T00:47:32.167Z,102069.70
2019-02-05T00:49:58.386Z,102072.78
2019-02-05T00:52:25.598Z,102071.44
2019-02-05T00:54:52.751Z,102079.73
2019-02-05T00:57:20.043Z,102077.11
2019-02-05T00:59:47.194Z,102081.50
2019-02-05T01:02:14.581Z,102081.49
2019-02-05T01:04:41.785Z,102077.56
2019-02-05T01:07:09.152Z,102077.56
2019-02-05T01:09:36.338Z,102079.30
2019-02-05T01:12:03.577Z,102068.81
2019-02-05T01:14:30.714Z,102069.70
2019-02-05T01:16:57.888Z,102071.89
2019-02-05T01:19:25.105Z,102082.38
2019-02-05T01:21:52.330Z,102074.97
2019-02-05T01:24:20.112Z,102071.89
2019-02-05T01:26:47.331Z,102070.16
2019-02-05T01:29:14.488Z,102074.08
2019-02-05T01:31:41.809Z,102076.28
2019-02-05T01:34:08.986Z,102083.26
2019-02-05T01:36:36.214Z,102078.02
2019-02-05T01:39:05.621Z,102088.50
2019-02-05T01:41:33.255Z,102082.79
2019-02-05T01:44:00.442Z,102090.23
2019-02-05T01:46:27.634Z,102086.77
2019-02-05T01:48:54.838Z,102094.20
2019-02-05T01:51:22.059Z,102092.02
2019-02-05T01:53:49.372Z,102094.59
2019-02-05T01:56:16.578Z,102091.55
2019-02-05T01:58:44.392Z,102096.79
2019-02-05T02:01:12.003Z,102091.97
2019-02-05T02:03:39.143Z,102090.70
2019-02-05T02:06:06.381Z,102082.38
2019-02-05T02:08:33.644Z,102083.22
2019-02-05T02:11:00.833Z,102089.77
2019-02-05T02:13:28.034Z,102086.77
2019-02-05T02:15:55.226Z,102091.13
2019-02-05T02:18:22.512Z,102095.02
2019-02-05T02:20:49.718Z,102091.97
2019-02-05T02:23:16.911Z,102100.30
2019-02-05T02:25:44.119Z,102092.86
2019-02-05T02:28:11.306Z,102089.80
2019-02-05T02:30:38.753Z,102092.00
2019-02-05T02:33:06.354Z,102089.38
2019-02-05T02:35:33.917Z,102091.99
2019-02-05T02:38:01.108Z,102092.84
2019-02-05T02:40:28.442Z,102095.91
2019-02-05T02:42:55.587Z,102091.53
2019-02-05T02:45:22.799Z,102095.92
2019-02-05T02:47:50.127Z,102095.92
2019-02-05T02:50:17.320Z,102098.09
2019-02-05T02:52:44.930Z,102102.45
2019-02-05T02:55:12.180Z,102096.78
2019-02-05T02:57:39.408Z,102110.75
2019-02-05T03:00:09.252Z,102107.27
2019-02-05T03:02:36.553Z,102105.50
2019-02-05T03:05:05.303Z,102099.41
2019-02-05T03:07:32.579Z,102105.97
2019-02-05T03:09:59.825Z,102103.80
2019-02-05T03:12:27.118Z,102104.23
2019-02-05T03:14:54.367Z,102111.21
2019-02-05T03:17:21.551Z,102109.90
2019-02-05T03:19:48.737Z,102111.20
2019-02-05T03:22:15.922Z,102108.63
2019-02-05T03:24:43.136Z,102112.09
2019-02-05T03:27:17.810Z,102107.28
2019-02-05T03:29:39.396Z,102116.03
2019-02-05T03:32:07.038Z,102113.37
2019-02-05T03:34:34.245Z,102112.06
2019-02-05T03:37:01.457Z,102109.44
2019-02-05T03:39:28.694Z,102109.47
2019-02-05T03:41:56.022Z,102109.47
2019-02-05T03:44:23.236Z,102098.98
2019-02-05T03:46:50.495Z,102098.98
2019-02-05T03:49:17.679Z,102106.81
2019-02-05T03:52:03.164Z,102109.44
2019-02-05T03:55:11.486Z,102116.03
2019-02-05T03:58:01.996Z,102112.53
2019-02-05T04:01:19.564Z,102115.61
2019-02-05T04:04:53.030Z,102116.91
2019-02-05T04:07:56.251Z,102116.02
2019-02-05T04:11:17.148Z,102120.81
2019-02-05T04:14:30.524Z,102124.36
2019-02-05T04:18:00.758Z,102123.02
2019-02-05T04:21:11.850Z,102120.39
2019-02-05T04:23:53.304Z,102120.39
2019-02-05T04:27:05.861Z,102128.27
2019-02-05T04:30:11.968Z,102130.00
2019-02-05T04:32:46.050Z,102122.58
2019-02-05T04:35:48.451Z,102140.48
2019-02-05T04:39:04.373Z,102137.88
2019-02-05T04:41:56.324Z,102147.05
2019-02-05T04:45:17.262Z,102147.05
2019-02-05T04:48:11.213Z,102146.59
2019-02-05T04:51:20.933Z,102158.84
2019-02-05T04:54:24.594Z,102160.13
2019-02-05T04:57:25.153Z,102156.19
2019-02-05T05:00:46.902Z,102168.86
2019-02-05T05:03:33.903Z,102160.13
2019-02-05T05:06:17.898Z,102171.03
2019-02-05T05:09:17.725Z,102162.70
2019-02-05T05:11:44.902Z,102167.53
2019-02-05T05:14:12.060Z,102160.08
2019-02-05T05:16:39.340Z,102167.95
2019-02-05T05:19:06.541Z,102163.13
2019-02-05T05:21:34.150Z,102164.45
2019-02-05T05:24:01.577Z,102172.28
2019-02-05T05:26:28.840Z,102169.66
2019-02-05T05:28:55.988Z,102176.19
2019-02-05T05:31:23.226Z,102173.53
2019-02-05T05:33:50.413Z,102184.45
2019-02-05T05:36:17.606Z,102186.61
2019-02-05T05:38:45.826Z,102195.38
2019-02-05T05:41:13.507Z,102185.34
2019-02-05T05:43:41.605Z,102194.53
2019-02-05T05:46:09.028Z,102194.07
2019-02-05T05:48:36.375Z,102187.50
2019-02-05T05:51:03.779Z,102193.22
2019-02-05T05:53:31.180Z,102192.36
2019-02-05T05:55:58.494Z,102189.28
2019-02-05T05:58:26.073Z,102195.87
2019-02-05T06:00:53.674Z,102192.79
2019-02-05T06:03:20.871Z,102195.87
2019-02-05T06:05:48.045Z,102196.30
2019-02-05T06:08:15.263Z,102194.14
2019-02-05T06:10:42.484Z,102198.50
2019-02-05T06:13:09.639Z,102197.61
2019-02-05T06:15:36.903Z,102196.34
2019-02-05T06:18:04.256Z,102206.41
2019-02-05T06:20:32.634Z,102198.53
2019-02-05T06:22:59.897Z,102210.80
2019-02-05T06:25:27.129Z,102216.05
2019-02-05T06:27:54.323Z,102220.44
2019-02-05T06:30:21.502Z,102223.91
2019-02-05T06:32:48.821Z,102224.80
2019-02-05T06:35:16.044Z,102228.30
2019-02-05T06:37:43.278Z,102225.67
2019-02-05T06:40:11.090Z,102227.02
2019-02-05T06:42:38.334Z,102226.57
2019-02-05T06:45:06.885Z,102231.39
2019-02-05T06:47:34.781Z,102228.77
2019-02-05T06:50:02.020Z,102230.94
2019-02-05T06:52:29.412Z,102239.69
2019-02-05T06:54:56.758Z,102243.17
2019-02-05T06:57:24.526Z,102245.81
2019-02-05T06:59:51.997Z,102257.16
2019-02-05T07:02:19.426Z,102252.38
2019-02-05T07:04:46.681Z,102255.86
2019-02-05T07:07:13.891Z,102258.05
2019-02-05T07:09:41.100Z,102263.28
2019-02-05T07:12:08.301Z,102267.67
2019-02-05T07:14:35.524Z,102269.44
2019-02-05T07:17:02.931Z,102269.44
2019-02-05T07:19:30.118Z,102271.17
2019-02-05T07:21:57.591Z,102272.48
2019-02-05T07:24:24.822Z,102278.59
2019-02-05T07:26:52.189Z,102271.61
2019-02-05T07:29:19.411Z,102276.85
2019-02-05T07:31:46.730Z,102283.84
2019-02-05T07:34:16.172Z,102287.34
2019-02-05T07:36:43.818Z,102281.67
2019-02-05T07:39:11.105Z,102294.80
2019-02-05T07:41:38.377Z,102290.86
2019-02-05T07:44:05.625Z,102300.05
2019-02-05T07:46:32.842Z,102290.84
2019-02-05T07:49:00.158Z,102295.22
2019-02-05T07:51:27.363Z,102292.17
2019-02-05T07:53:54.558Z,102300.46
2019-02-05T07:56:21.807Z,102305.72
2019-02-05T07:58:49.551Z,102307.46
2019-02-05T08:01:17.728Z,102308.31
2019-02-05T08:03:45.068Z,102310.53
2019-02-05T08:06:12.282Z,102310.97
2019-02-05T08:08:39.488Z,102312.72
2019-02-05T08:11:06.716Z,102307.90
2019-02-05T08:13:33.917Z,102306.59
2019-02-05T08:16:01.262Z,102319.72
2019-02-05T08:18:28.580Z,102331.08
2019-02-05T08:20:55.813Z,102331.50
2019-02-05T08:23:23.407Z,102331.94
2019-02-05T08:25:50.717Z,102338.94
2019-02-05T08:28:17.934Z,102338.08
2019-02-05T08:30:46.919Z,102332.38
2019-02-05T08:33:14.261Z,102338.94
2019-02-05T08:35:41.623Z,102336.76
2019-02-05T08:38:08.870Z,102340.27
2019-02-05T08:40:36.109Z,102344.63
2019-02-05T08:43:04.198Z,102349.02
2019-02-05T08:45:31.482Z,102351.64
2019-02-05T08:47:58.726Z,102353.81
2019-02-05T08:50:27.411Z,102352.50
2019-02-05T08:52:54.878Z,102343.73
2019-02-05T08:55:22.085Z,102344.20
2019-02-05T08:57:50.227Z,102351.19
2019-02-05T09:00:19.810Z,102352.08
2019-02-05T09:02:47.357Z,102358.19
2019-02-05T09:05:15.083Z,102368.67
2019-02-05T09:07:42.374Z,102368.23
2019-02-05T09:10:11.574Z,102377.45
2019-02-05T09:12:38.787Z,102378.30
2019-02-05T09:15:07.515Z,102380.07
2019-02-05T09:17:34.758Z,102379.16
2019-02-05T09:20:01.969Z,102379.16
2019-02-05T09:22:29.344Z,102381.38
2019-02-05T09:24:56.599Z,102375.25
2019-02-05T09:27:24.127Z,102383.13
2019-02-05T09:29:51.522Z,102389.70
2019-02-05T09:32:18.690Z,102390.55
2019-02-05T09:34:45.899Z,102393.17
2019-02-05T09:37:13.263Z,102397.11
2019-02-05T09:39:40.533Z,102396.69
2019-02-05T09:42:08.027Z,102393.61
2019-02-05T09:44:35.306Z,102394.48
2019-02-05T09:47:02.535Z,102404.98
2019-02-05T09:49:29.866Z,102404.56
2019-02-05T09:51:57.261Z,102409.38
2019-02-05T09:54:24.501Z,102409.81
2019-02-05T09:56:51.868Z,102412.87
2019-02-05T09:59:19.118Z,102415.94
2019-02-05T10:01:46.710Z,102417.68
2019-02-05T10:04:13.962Z,102415.94
2019-02-05T10:06:41.178Z,102419.43
2019-02-05T10:09:08.516Z,102425.98
2019-02-05T10:11:35.719Z,102422.92
2019-02-05T10:14:02.887Z,102429.50
2019-02-05T10:16:30.186Z,102428.20
2019-02-05T10:18:57.427Z,102425.12
2019-02-05T10:21:24.998Z,102429.06
2019-02-05T10:23:52.370Z,102433.01
2019-02-05T10:26:19.598Z,102433.44
2019-02-05T10:28:46.811Z,102438.24
2019-02-05T10:31:14.039Z,102435.19
2019-02-05T10:33:41.245Z,102437.41
2019-02-05T10:36:08.454Z,102435.20
2019-02-05T10:38:35.656Z,102444.86
2019-02-05T10:41:04.040Z,102440.45
2019-02-05T10:43:31.294Z,102449.18
2019-02-05T10:45:58.485Z,102455.36
2019-02-05T10:48:25.730Z,102450.55
2019-02-05T10:50:53.111Z,102452.28
2019-02-05T10:53:20.425Z,102449.64
2019-02-05T10:55:47.711Z,102451.84
2019-02-05T10:58:14.963Z,102447.48
2019-02-05T11:00:42.207Z,102454.05
2019-02-05T11:03:09.409Z,102444.41
2019-02-05T11:05:36.611Z,102446.58
2019-02-05T11:08:03.965Z,102446.16
2019-02-05T11:10:31.163Z,102446.59
2019-02-05T11:12:58.502Z,102446.17
2019-02-05T11:15:30.353Z,102447.48
2019-02-05T11:17:57.552Z,102452.28
2019-02-05T11:20:27.770Z,102443.98
2019-02-05T11:22:55.234Z,102452.27
2019-02-05T11:25:22.559Z,102452.73
2019-02-05T11:27:49.856Z,102452.71
2019-02-05T11:30:20.653Z,102447.03
2019-02-05T11:32:48.943Z,102454.48
2019-02-05T11:35:16.220Z,102459.73
2019-02-05T11:37:43.475Z,102462.37
2019-02-05T11:40:15.611Z,102459.28
2019-02-05T11:42:44.428Z,102461.48
2019-02-05T11:45:13.203Z,102455.34
2019-02-05T11:47:40.554Z,102459.30
2019-02-05T11:50:09.057Z,102460.60
2019-02-05T11:52:36.508Z,102455.36
2019-02-05T11:55:04.142Z,102458.41
2019-02-05T11:57:31.703Z,102459.30
2019-02-05T11:59:59.079Z,102461.05
2019-02-05T12:02:26.308Z,102452.73
2019-02-05T12:04:53.525Z,102450.06
2019-02-05T12:07:20.894Z,102448.80
2019-02-05T12:09:48.118Z,102450.55
2019-02-05T12:12:15.402Z,102443.98
2019-02-05T12:14:42.612Z,102441.77
2019-02-05T12:17:10.328Z,102446.59
2019-02-05T12:19:37.539Z,102444.85
2019-02-05T12:22:04.878Z,102444.39
2019-02-05T12:24:32.183Z,102440.89
2019-02-05T12:26:59.670Z,102444.83
2019-02-05T12:29:26.926Z,102443.07
2019-02-05T12:31:54.131Z,102440.02
2019-02-05T12:34:21.400Z,102442.62
2019-02-05T12:36:48.616Z,102432.11
2019-02-05T12:39:17.601Z,102440.84
2019-02-05T12:41:44.875Z,102442.20
2019-02-05T12:44:12.113Z,102436.51
2019-02-05T12:46:39.601Z,102442.61
2019-02-05T12:49:06.822Z,102440.01
2019-02-05T12:51:34.031Z,102433.02
2019-02-05T12:54:01.282Z,102440.02
2019-02-05T12:56:28.945Z,102434.32
2019-02-05T12:58:56.165Z,102435.20
2019-02-05T13:01:23.380Z,102435.62
2019-02-05T13:03:50.676Z,102433.45
2019-02-05T13:06:19.056Z,102434.77
2019-02-05T13:08:47.520Z,102438.25
2019-02-05T13:11:14.688Z,102435.64
2019-02-05T13:13:42.387Z,102444.41
2019-02-05T13:16:09.667Z,102446.59
2019-02-05T13:18:36.868Z,102448.77
2019-02-05T13:21:04.066Z,102443.06
2019-02-05T13:23:31.295Z,102448.78
2019-02-05T13:25:58.516Z,102444.38
2019-02-05T13:28:25.766Z,102450.08
2019-02-05T13:30:53.006Z,102448.73
2019-02-05T13:33:20.355Z,102456.59
2019-02-05T13:35:47.570Z,102454.41
2019-02-05T13:38:14.806Z,102451.35
2019-02-05T13:40:42.039Z,102453.52
2019-02-05T13:43:09.228Z,102455.72
2019-02-05T13:45:36.414Z,102452.66
2019-02-05T13:48:04.405Z,102453.98
2019-02-05T13:50:33.481Z,102460.09
2019-02-05T13:53:00.845Z,102462.72
2019-02-05T13:55:37.601Z,102457.89
2019-02-05T13:58:04.890Z,102461.84
2019-02-05T14:00:39.994Z,102466.20
2019-02-05T14:03:08.456Z,102472.78
2019-02-05T14:05:35.896Z,102468.44
2019-02-05T14:08:03.348Z,102469.77
2019-02-05T14:10:31.169Z,102475.91
2019-02-05T14:12:58.431Z,102483.34
2019-02-05T14:15:27.548Z,102485.53
2019-02-05T14:17:54.723Z,102484.24
2019-02-05T14:20:22.430Z,102482.05
2019-02-05T14:22:49.640Z,102485.56
2019-02-05T14:25:16.918Z,102475.05
2019-02-05T14:27:44.127Z,102484.66
2019-02-05T14:30:15.501Z,102482.48
2019-02-05T14:32:42.806Z,102490.80
2019-02-05T14:35:10.009Z,102489.48
2019-02-05T14:37:37.632Z,102487.30
2019-02-05T14:40:07.312Z,102487.30
2019-02-05T14:42:34.546Z,102490.36
2019-02-05T14:45:01.775Z,102489.92
2019-02-05T14:47:28.964Z,102489.94
2019-02-05T14:49:56.288Z,102496.05
2019-02-05T14:52:23.763Z,102495.62
2019-02-05T14:54:51.949Z,102492.53
2019-02-05T14:57:19.139Z,102500.00
2019-02-05T14:59:46.348Z,102494.29
2019-02-05T15:02:13.684Z,102503.05
2019-02-05T15:04:40.912Z,102498.25
2019-02-05T15:07:08.180Z,102501.30
2019-02-05T15:09:35.634Z,102502.19
2019-02-05T15:12:03.270Z,102503.07
2019-02-05T15:14:30.606Z,102501.30
2019-02-05T15:16:57.798Z,102505.25
2019-02-05T15:19:24.972Z,102504.81
2019-02-05T15:21:52.189Z,102506.11
2019-02-05T15:24:19.424Z,102509.20
2019-02-05T15:26:46.666Z,102511.83
2019-02-05T15:29:14.265Z,102512.26
2019-02-05T15:31:41.477Z,102510.08
2019-02-05T15:34:23.467Z,102508.77
2019-02-05T15:36:51.118Z,102508.77
2019-02-05T15:39:18.499Z,102515.33
2019-02-05T15:41:45.679Z,102510.50
2019-02-05T15:44:13.170Z,102510.06
2019-02-05T15:46:40.475Z,102505.70
2019-02-05T15:49:07.661Z,102516.19
2019-02-05T15:51:34.862Z,102513.59
2019-02-05T15:54:02.097Z,102519.27
2019-02-05T15:56:29.328Z,102522.77
2019-02-05T15:58:56.614Z,102522.78
2019-02-05T16:01:24.149Z,102525.39
2019-02-05T16:03:51.485Z,102529.75
2019-02-05T16:06:18.682Z,102519.71
2019-02-05T16:08:45.889Z,102526.70
2019-02-05T16:11:13.086Z,102519.25
2019-02-05T16:13:40.235Z,102518.81
2019-02-05T16:16:07.478Z,102523.20
2019-02-05T16:18:34.693Z,102521.89
2019-02-05T16:21:02.413Z,102515.30
2019-02-05T16:23:29.661Z,102526.27
2019-02-05T16:25:56.867Z,102530.63
2019-02-05T16:28:24.131Z,102526.69
2019-02-05T16:30:51.375Z,102532.83
2019-02-05T16:33:18.689Z,102536.34
2019-02-05T16:35:46.268Z,102540.27
2019-02-05T16:38:14.177Z,102535.01
2019-02-05T16:40:41.423Z,102538.52
2019-02-05T16:43:08.706Z,102535.02
2019-02-05T16:45:36.559Z,102538.52
2019-02-05T16:48:05.822Z,102536.33
2019-02-05T16:50:37.472Z,102536.33
2019-02-05T16:53:12.606Z,102540.70
2019-02-05T16:55:39.853Z,102543.31
2019-02-05T16:58:07.084Z,102545.06
2019-02-05T17:00:34.363Z,102546.41
2019-02-05T17:03:01.630Z,102547.27
2019-02-05T17:05:30.655Z,102548.59
2019-02-05T17:07:57.961Z,102556.47
2019-02-05T17:10:25.431Z,102556.47
2019-02-05T17:12:52.618Z,102559.95
2019-02-05T17:15:19.806Z,102564.33
2019-02-05T17:17:47.003Z,102563.90
2019-02-05T17:20:21.597Z,102562.58
2019-02-05T17:22:48.854Z,102563.47
2019-02-05T17:25:17.292Z,102564.34
2019-02-05T17:27:45.052Z,102569.16
2019-02-05T17:30:14.983Z,102569.59
2019-02-05T17:32:42.443Z,102571.38
2019-02-05T17:35:09.705Z,102570.94
2019-02-05T17:37:37.331Z,102574.87
2019-02-05T17:40:05.501Z,102570.05
2019-02-05T17:42:32.750Z,102581.87
2019-02-05T17:45:00.236Z,102571.38
2019-02-05T17:47:27.512Z,102578.38
2019-02-05T17:49:54.736Z,102576.64
2019-02-05T17:52:22.450Z,102584.09
2019-02-05T17:54:49.827Z,102588.88
2019-02-05T17:57:17.082Z,102586.24
2019-02-05T17:59:44.428Z,102585.36
2019-02-05T18:02:12.576Z,102587.11
2019-02-05T18:04:40.048Z,102584.03
2019-02-05T18:07:07.400Z,102589.28
2019-02-05T18:09:35.176Z,102589.70
2019-02-05T18:12:02.475Z,102588.41
2019-02-05T18:14:29.756Z,102590.17
2019-02-05T18:16:56.989Z,102594.12
2019-02-05T18:19:24.596Z,102591.96
2019-02-05T18:21:51.813Z,102593.69
2019-02-05T18:24:19.092Z,102590.62
2019-02-05T18:26:46.386Z,102591.94
2019-02-05T18:29:13.563Z,102597.61
2019-02-05T18:31:40.825Z,102593.20
2019-02-05T18:34:08.017Z,102595.86
2019-02-05T18:36:35.692Z,102593.67
2019-02-05T18:39:04.797Z,102596.30
2019-02-05T18:41:31.970Z,102596.27
2019-02-05T18:43:59.221Z,102594.09
2019-02-05T18:46:26.563Z,102594.11
2019-02-05T18:49:04.265Z,102597.17
2019-02-05T18:51:22.960Z,102600.68
2019-02-05T18:53:50.587Z,102597.17
2019-02-05T18:56:17.802Z,102594.98
2019-02-05T18:58:45.027Z,102596.30
2019-02-05T19:01:12.238Z,102594.09
2019-02-05T19:03:39.484Z,102590.61
2019-02-05T19:06:06.676Z,102585.36
2019-02-05T19:08:34.021Z,102590.19
2019-02-05T19:11:01.216Z,102583.17
2019-02-05T19:13:28.800Z,102592.80
2019-02-05T19:15:56.019Z,102594.12
2019-02-05T19:18:27.378Z,102584.94
2019-02-05T19:20:54.714Z,102597.59
2019-02-05T19:23:22.103Z,102591.92
2019-02-05T19:26:11.994Z,102587.11
2019-02-05T19:28:40.541Z,102590.20
2019-02-05T19:31:30.289Z,102587.16
2019-02-05T19:33:57.649Z,102586.70
2019-02-05T19:36:25.497Z,102581.02
2019-02-05T19:38:52.736Z,102583.63
2019-02-05T19:41:19.987Z,102588.03
2019-02-05T19:43:47.371Z,102582.75
2019-02-05T19:46:37.382Z,102587.13
2019-02-05T19:49:21.481Z,102586.27
2019-02-05T19:51:45.174Z,102587.16
2019-02-05T19:54:13.183Z,102583.64
2019-02-05T19:56:40.438Z,102588.91
2019-02-05T19:59:08.070Z,102592.85
2019-02-05T20:01:35.471Z,102592.84
2019-02-05T20:04:02.919Z,102593.27
2019-02-05T20:06:31.635Z,102597.20
2019-02-05T20:08:59.378Z,102604.65
2019-02-05T20:11:26.748Z,102597.62
2019-02-05T20:13:54.237Z,102609.47
2019-02-05T20:16:25.413Z,102613.84
2019-02-05T20:18:52.944Z,102611.66
2019-02-05T20:21:20.321Z,102608.59
2019-02-05T20:23:49.236Z,102612.11
2019-02-05T20:26:17.093Z,102607.24
2019-02-05T20:28:44.558Z,102603.30
2019-02-05T20:31:12.105Z,102600.21
2019-02-05T20:33:49.405Z,102591.46
2019-02-05T20:36:08.906Z,102593.67
2019-02-05T20:38:36.497Z,102603.73
2019-02-05T20:41:03.869Z,102598.42
2019-02-05T20:43:31.621Z,102594.03
2019-02-05T20:45:58.872Z,102597.09
2019-02-05T20:48:29.605Z,102601.02
2019-02-05T20:50:55.973Z,102602.78
2019-02-05T20:53:23.312Z,102606.71
2019-02-05T20:55:50.646Z,102606.70
2019-02-05T20:58:18.059Z,102609.77
2019-02-05T21:00:45.262Z,102607.13
2019-02-05T21:03:12.705Z,102601.44
2019-02-05T21:05:40.330Z,102610.16
2019-02-05T21:08:07.952Z,102612.33
2019-02-05T21:10:36.382Z,102615.84
2019-02-05T21:13:03.701Z,102611.92
2019-02-05T21:15:31.250Z,102613.67
2019-02-05T21:17:58.582Z,102614.55
2019-02-05T21:20:29.284Z,102623.30
2019-02-05T21:22:57.009Z,102627.21
2019-02-05T21:25:24.783Z,102627.21
2019-02-05T21:27:52.082Z,102624.59
2019-02-05T21:30:19.679Z,102620.67
2019-02-05T21:32:47.985Z,102623.70
2019-02-05T21:35:15.495Z,102625.44
2019-02-05T21:37:46.002Z,102625.42
2019-02-05T21:40:16.628Z,102625.45
2019-02-05T21:42:46.266Z,102628.98
2019-02-05T21:45:19.900Z,102628.07
2019-02-05T21:47:47.567Z,102626.78
2019-02-05T21:50:17.704Z,102625.89
2019-02-05T21:52:49.375Z,102625.47
2019-02-05T21:55:17.299Z,102627.21
2019-02-05T21:57:44.530Z,102632.02
2019-02-05T22:00:17.424Z,102626.31
2019-02-05T22:02:44.834Z,102624.61
2019-02-05T22:05:12.084Z,102625.91
2019-02-05T22:07:39.403Z,102633.77
2019-02-05T22:10:06.717Z,102635.96
2019-02-05T22:12:33.985Z,102631.58
2019-02-05T22:15:01.296Z,102632.89
2019-02-05T22:17:28.461Z,102629.83
2019-02-05T22:19:55.724Z,102632.42
2019-02-05T22:22:23.052Z,102625.89
2019-02-05T22:24:50.290Z,102625.88
2019-02-05T22:27:17.939Z,102619.31
2019-02-05T22:29:45.162Z,102618.91
2019-02-05T22:32:12.421Z,102613.20
2019-02-05T22:34:39.711Z,102611.44
2019-02-05T22:37:06.982Z,102611.45
2019-02-05T22:39:34.704Z,102613.19
2019-02-05T22:42:01.925Z,102609.72
2019-02-05T22:44:29.246Z,102605.34
2019-02-05T22:46:56.494Z,102606.22
2019-02-05T22:49:23.892Z,102603.56
2019-02-05T22:51:51.427Z,102604.44
2019-02-05T22:54:18.648Z,102601.39
2019-02-05T22:56:46.128Z,102596.13
2019-02-05T22:59:13.583Z,102596.14
2019-02-05T23:01:52.505Z,102589.11
2019-02-05T23:04:31.649Z,102587.82
2019-02-05T23:07:02.958Z,102581.71
2019-02-05T23:10:25.289Z,102587.40
2019-02-05T23:13:09.783Z,102590.01
2019-02-05T23:15:42.415Z,102591.75
2019-02-05T23:18:10.270Z,102595.72
2019-02-05T23:20:37.617Z,102603.20
2019-02-05T23:23:04.849Z,102600.52
2019-02-05T23:25:32.038Z,102601.80
2019-02-05T23:27:59.284Z,102608.36
2019-02-05T23:30:27.771Z,102606.19
2019-02-05T23:32:55.010Z,102608.38
2019-02-05T23:35:22.222Z,102602.25
2019-02-05T23:37:49.492Z,102606.60
2019-02-05T23:40:16.717Z,102609.76
2019-02-05T23:42:43.966Z,102612.40
2019-02-05T23:45:11.684Z,102615.87
2019-02-05T23:47:38.949Z,102612.83
2019-02-05T23:50:08.222Z,102608.02
2019-02-05T23:52:35.569Z,102606.30
2019-02-05T23:55:03.243Z,102609.80
2019-02-05T23:57:30.462Z,102604.94
2019-02-05T23:59:57.603Z,102605.80
